createdAt,value
2018-06-15T00:02:12.926Z,13.40
2018-06-15T00:04:47.151Z,13.40
2018-06-15T00:07:21.550Z,13.40
2018-06-15T00:09:56.879Z,13.40
2018-06-15T00:12:31.213Z,13.40
2018-06-15T00:15:05.624Z,13.40
2018-06-15T00:17:40.468Z,13.00
2018-06-15T00:20:14.812Z,12.60
2018-06-15T00:22:49.156Z,12.70
2018-06-15T00:25:23.471Z,12.80
2018-06-15T00:27:57.891Z,12.90
2018-06-15T00:30:32.210Z,12.90
2018-06-15T00:33:06.632Z,12.90
2018-06-15T00:35:41.027Z,13.00
2018-06-15T00:38:15.295Z,13.00
2018-06-15T00:40:49.685Z,13.00
2018-06-15T00:45:58.146Z,13.00
2018-06-15T00:48:32.611Z,12.90
2018-06-15T00:51:06.883Z,12.90
2018-06-15T00:53:41.155Z,12.80
2018-06-15T00:56:15.611Z,12.80
2018-06-15T01:01:23.886Z,12.90
2018-06-15T01:03:58.263Z,12.80
2018-06-15T01:06:33.098Z,12.70
2018-06-15T01:09:08.075Z,12.80
2018-06-15T01:11:42.348Z,12.70
2018-06-15T01:14:16.718Z,12.60
2018-06-15T01:16:51.123Z,12.10
2018-06-15T01:19:25.362Z,12.10
2018-06-15T01:21:59.722Z,12.10
2018-06-15T01:24:34.099Z,12.10
2018-06-15T01:27:08.529Z,12.20
2018-06-15T01:29:42.910Z,12.10
2018-06-15T01:34:51.420Z,12.00
2018-06-15T01:37:25.775Z,12.10
2018-06-15T01:40:00.145Z,12.10
2018-06-15T01:42:34.636Z,12.20
2018-06-15T01:45:08.919Z,12.20
2018-06-15T01:47:43.352Z,12.10
2018-06-15T01:50:17.715Z,12.10
2018-06-15T01:52:53.232Z,12.10
2018-06-15T01:55:27.522Z,11.90
2018-06-15T01:58:01.883Z,12.00
2018-06-15T02:00:36.270Z,12.00
2018-06-15T02:03:10.629Z,12.00
2018-06-15T02:05:45.154Z,11.80
2018-06-15T02:08:19.620Z,11.60
2018-06-15T02:10:54.150Z,11.60
2018-06-15T02:13:28.577Z,11.70
2018-06-15T02:16:03.005Z,11.70
2018-06-15T02:18:37.586Z,11.90
2018-06-15T02:21:12.004Z,11.90
2018-06-15T02:23:46.344Z,11.90
2018-06-15T02:26:20.795Z,12.00
2018-06-15T02:28:55.229Z,12.00
2018-06-15T02:31:29.554Z,12.00
2018-06-15T02:34:03.989Z,12.10
2018-06-15T02:36:39.046Z,12.10
2018-06-15T02:39:13.273Z,12.00
2018-06-15T02:46:55.912Z,12.20
2018-06-15T02:49:30.216Z,12.20
2018-06-15T02:52:04.601Z,12.30
2018-06-15T02:54:38.950Z,12.30
2018-06-15T02:59:47.299Z,12.40
2018-06-15T03:02:21.603Z,12.50
2018-06-15T03:04:56.179Z,12.40
2018-06-15T03:07:30.626Z,12.30
2018-06-15T03:10:04.893Z,12.20
2018-06-15T03:12:39.517Z,12.20
2018-06-15T03:17:48.021Z,12.30
2018-06-15T03:20:22.420Z,12.30
2018-06-15T03:22:56.760Z,12.30
2018-06-15T03:28:05.292Z,12.20
2018-06-15T03:30:39.767Z,12.10
2018-06-15T03:33:14.067Z,11.10
2018-06-15T03:35:48.447Z,11.40
2018-06-15T03:40:56.906Z,11.70
2018-06-15T03:43:31.193Z,11.90
2018-06-15T03:48:39.506Z,11.70
2018-06-15T03:51:13.936Z,10.70
2018-06-15T03:53:48.305Z,10.80
2018-06-15T03:56:22.637Z,10.80
2018-06-15T03:58:57.060Z,10.10
2018-06-15T04:01:31.232Z,9.70
2018-06-15T04:04:05.645Z,10.00
2018-06-15T04:06:40.086Z,10.40
2018-06-15T04:09:14.558Z,10.60
2018-06-15T04:16:57.021Z,11.10
2018-06-15T04:19:31.467Z,11.30
2018-06-15T04:22:05.915Z,11.50
2018-06-15T04:29:48.732Z,11.70
2018-06-15T04:34:57.360Z,11.90
2018-06-15T04:37:31.645Z,12.00
2018-06-15T04:40:05.968Z,12.10
2018-06-15T04:42:40.308Z,12.20
2018-06-15T04:45:14.683Z,12.30
2018-06-15T04:47:49.063Z,12.30
2018-06-15T04:50:23.394Z,12.40
2018-06-15T04:52:57.819Z,12.40
2018-06-15T04:55:32.199Z,12.50
2018-06-15T04:58:06.516Z,12.40
2018-06-15T05:00:40.817Z,12.50
2018-06-15T05:03:15.319Z,12.60
2018-06-15T05:05:49.719Z,12.70
2018-06-15T05:08:24.077Z,12.70
2018-06-15T05:10:58.512Z,12.80
2018-06-15T05:13:32.955Z,12.90
2018-06-15T05:21:15.674Z,13.10
2018-06-15T05:23:50.092Z,13.30
2018-06-15T05:26:24.433Z,13.30
2018-06-15T05:28:58.961Z,13.50
2018-06-15T05:31:33.442Z,13.60
2018-06-15T05:34:07.827Z,13.70
2018-06-15T05:36:42.129Z,13.80
2018-06-15T05:39:16.590Z,13.80
2018-06-15T05:41:51.247Z,13.70
2018-06-15T05:47:00.374Z,13.80
2018-06-15T05:49:35.126Z,13.90
2018-06-15T05:52:09.935Z,14.00
2018-06-15T05:54:45.769Z,14.00
2018-06-15T05:57:20.760Z,14.00
2018-06-15T05:59:55.431Z,14.20
2018-06-15T06:02:29.931Z,14.30
2018-06-15T06:05:04.489Z,14.40
2018-06-15T06:07:38.899Z,14.50
2018-06-15T06:10:13.344Z,14.60
2018-06-15T06:12:47.678Z,14.70
2018-06-15T06:15:22.097Z,14.30
2018-06-15T06:20:30.471Z,14.50
2018-06-15T06:23:04.812Z,14.70
2018-06-15T06:25:39.162Z,14.90
2018-06-15T06:28:13.627Z,15.10
2018-06-15T06:30:47.998Z,15.20
2018-06-15T06:33:22.545Z,15.40
2018-06-15T06:35:56.893Z,15.40
2018-06-15T06:38:31.389Z,15.50
2018-06-15T06:41:05.736Z,15.70
2018-06-15T06:43:40.340Z,15.70
2018-06-15T06:46:14.617Z,15.80
2018-06-15T06:48:49.065Z,15.70
2018-06-15T06:51:23.470Z,15.90
2018-06-15T06:53:57.973Z,16.10
2018-06-15T06:56:32.363Z,16.20
2018-06-15T07:04:15.027Z,16.40
2018-06-15T07:06:49.338Z,16.40
2018-06-15T07:09:23.681Z,16.60
2018-06-15T07:11:58.094Z,16.70
2018-06-15T07:17:06.617Z,16.60
2018-06-15T07:22:15.018Z,16.70
2018-06-15T07:24:49.446Z,16.80
2018-06-15T07:27:23.890Z,17.00
2018-06-15T07:29:58.406Z,17.00
2018-06-15T07:32:32.880Z,17.00
2018-06-15T07:35:07.343Z,17.10
2018-06-15T07:37:41.645Z,17.30
2018-06-15T07:40:15.999Z,17.40
2018-06-15T07:42:50.326Z,17.40
2018-06-15T07:45:24.695Z,17.40
2018-06-15T07:47:59.006Z,17.40
2018-06-15T07:50:33.350Z,17.40
2018-06-15T07:53:07.591Z,17.50
2018-06-15T07:55:41.974Z,17.60
2018-06-15T07:58:16.308Z,17.60
2018-06-15T08:00:50.610Z,17.80
2018-06-15T08:03:25.047Z,17.90
2018-06-15T08:05:59.353Z,17.70
2018-06-15T08:08:33.777Z,17.80
2018-06-15T08:11:08.230Z,17.90
2018-06-15T08:13:42.568Z,18.00
2018-06-15T08:16:17.053Z,18.30
2018-06-15T08:18:51.339Z,18.30
2018-06-15T08:21:25.724Z,18.30
2018-06-15T08:24:00.023Z,18.40
2018-06-15T08:29:08.838Z,18.60
2018-06-15T08:31:43.126Z,18.50
2018-06-15T08:34:17.515Z,18.50
2018-06-15T08:36:51.781Z,18.30
2018-06-15T08:39:26.207Z,18.20
2018-06-15T08:42:00.532Z,18.00
2018-06-15T08:44:34.946Z,17.90
2018-06-15T08:47:09.200Z,17.80
2018-06-15T08:52:17.685Z,18.30
2018-06-15T08:54:53.098Z,18.20
2018-06-15T08:57:27.526Z,18.30
2018-06-15T09:00:01.821Z,18.30
2018-06-15T09:02:36.126Z,18.60
2018-06-15T09:05:10.505Z,18.80
2018-06-15T09:07:44.833Z,18.80
2018-06-15T09:12:53.436Z,18.90
2018-06-15T09:15:27.714Z,19.00
2018-06-15T09:20:37.008Z,19.10
2018-06-15T09:23:11.345Z,19.40
2018-06-15T09:28:19.806Z,19.30
2018-06-15T09:30:54.162Z,19.50
2018-06-15T09:33:28.440Z,19.70
2018-06-15T09:36:02.838Z,19.80
2018-06-15T09:41:11.187Z,19.70
2018-06-15T09:43:45.604Z,19.80
2018-06-15T09:46:19.918Z,19.90
2018-06-15T09:48:54.283Z,19.70
2018-06-15T09:51:28.548Z,19.80
2018-06-15T09:54:02.781Z,19.80
2018-06-15T09:59:11.285Z,19.90
2018-06-15T10:01:45.733Z,20.20
2018-06-15T10:04:20.031Z,20.20
2018-06-15T10:06:54.302Z,20.40
2018-06-15T10:09:28.573Z,20.30
2018-06-15T10:12:02.903Z,20.20
2018-06-15T10:14:37.158Z,20.10
2018-06-15T10:17:11.440Z,20.30
2018-06-15T10:19:45.827Z,20.50
2018-06-15T10:22:20.502Z,20.70
2018-06-15T10:27:29.092Z,20.40
2018-06-15T10:32:37.707Z,20.60
2018-06-15T10:35:12.126Z,20.80
2018-06-15T10:40:20.671Z,20.60
2018-06-15T10:42:55.131Z,20.40
2018-06-15T10:45:29.552Z,20.30
2018-06-15T10:48:03.892Z,20.20
2018-06-15T10:50:38.272Z,20.10
2018-06-15T10:53:12.638Z,20.20
2018-06-15T10:55:47.115Z,20.50
2018-06-15T11:00:55.860Z,20.70
2018-06-15T11:03:30.162Z,20.90
2018-06-15T11:06:04.534Z,21.20
2018-06-15T11:08:38.905Z,21.20
2018-06-15T11:11:13.274Z,21.40
2018-06-15T11:13:47.550Z,21.60
2018-06-15T11:16:21.802Z,21.70
2018-06-15T11:18:56.087Z,21.50
2018-06-15T11:21:30.305Z,21.50
2018-06-15T11:24:05.013Z,21.40
2018-06-15T11:31:47.772Z,21.20
2018-06-15T11:34:22.167Z,21.10
2018-06-15T11:36:56.580Z,20.90
2018-06-15T11:39:30.972Z,20.80
2018-06-15T11:42:05.361Z,21.10
2018-06-15T11:44:39.781Z,21.10
2018-06-15T11:47:14.141Z,21.10
2018-06-15T11:49:48.432Z,21.00
2018-06-15T11:52:22.791Z,21.00
2018-06-15T11:54:57.205Z,21.10
2018-06-15T11:57:31.622Z,21.30
2018-06-15T12:00:06.018Z,21.60
2018-06-15T12:02:40.357Z,21.60
2018-06-15T12:05:14.595Z,21.50
2018-06-15T12:07:49.050Z,21.50
2018-06-15T12:10:23.342Z,21.30
2018-06-15T12:12:57.903Z,21.60
2018-06-15T12:18:06.380Z,21.70
2018-06-15T12:20:40.748Z,21.70
2018-06-15T12:25:49.242Z,21.80
2018-06-15T12:28:23.762Z,21.60
2018-06-15T12:33:32.383Z,21.80
2018-06-15T12:36:06.767Z,21.90
2018-06-15T12:38:41.079Z,22.00
2018-06-15T12:41:15.546Z,22.10
2018-06-15T12:43:49.860Z,22.20
2018-06-15T12:46:24.211Z,22.10
2018-06-15T12:48:58.695Z,21.80
2018-06-15T12:51:32.988Z,21.80
2018-06-15T12:54:07.247Z,21.90
2018-06-15T12:56:41.575Z,22.20
2018-06-15T12:59:16.006Z,22.00
2018-06-15T13:01:50.346Z,22.10
2018-06-15T13:04:24.772Z,22.30
2018-06-15T13:06:59.028Z,22.50
2018-06-15T13:09:33.382Z,22.50
2018-06-15T13:12:07.653Z,22.50
2018-06-15T13:14:41.980Z,22.20
2018-06-15T13:17:16.436Z,22.20
2018-06-15T13:22:25.255Z,22.30
2018-06-15T13:24:59.894Z,22.50
2018-06-15T13:27:34.438Z,22.50
2018-06-15T13:30:08.919Z,22.60
2018-06-15T13:32:43.544Z,22.70
2018-06-15T13:35:18.181Z,22.90
2018-06-15T13:37:52.670Z,23.10
2018-06-15T13:43:01.256Z,22.80
2018-06-15T13:45:35.742Z,22.70
2018-06-15T13:48:10.119Z,22.70
2018-06-15T13:50:44.732Z,22.80
2018-06-15T14:06:10.602Z,23.20
2018-06-15T14:08:45.067Z,23.10
2018-06-15T14:11:19.578Z,23.20
2018-06-15T14:13:54.191Z,22.80
2018-06-15T14:16:29.182Z,22.70
2018-06-15T14:19:03.617Z,22.80
2018-06-15T14:21:38.233Z,22.80
2018-06-15T14:24:12.965Z,23.00
2018-06-15T14:31:55.766Z,23.20
2018-06-15T14:34:30.082Z,23.50
2018-06-15T14:37:04.548Z,23.40
2018-06-15T14:39:39.011Z,23.70
2018-06-15T14:42:13.254Z,23.20
2018-06-15T14:44:47.625Z,23.40
2018-06-15T14:47:21.919Z,23.30
2018-06-15T14:49:56.364Z,23.30
2018-06-15T14:52:30.896Z,23.30
2018-06-15T14:55:05.483Z,23.80
2018-06-15T14:57:39.863Z,24.40
2018-06-15T15:00:14.289Z,24.40
2018-06-15T15:02:48.699Z,24.10
2018-06-15T15:05:23.567Z,23.50
2018-06-15T15:10:31.952Z,23.20
2018-06-15T15:13:06.196Z,23.80
2018-06-15T15:15:40.501Z,24.40
2018-06-15T15:18:14.814Z,24.50
2018-06-15T15:20:49.066Z,24.30
2018-06-15T15:23:23.619Z,24.50
2018-06-15T15:25:57.937Z,23.80
2018-06-15T15:28:32.202Z,23.80
2018-06-15T15:31:06.610Z,24.20
2018-06-15T15:36:15.174Z,24.10
2018-06-15T15:38:49.991Z,24.20
2018-06-15T15:41:24.531Z,24.20
2018-06-15T15:43:59.069Z,24.30
2018-06-15T15:46:33.448Z,24.40
2018-06-15T15:49:07.973Z,24.90
2018-06-15T15:51:42.287Z,24.70
2018-06-15T15:54:16.702Z,24.70
2018-06-15T15:56:51.087Z,24.40
2018-06-15T15:59:25.689Z,24.40
2018-06-15T16:02:00.150Z,24.70
2018-06-15T16:04:34.637Z,25.20
2018-06-15T16:07:09.175Z,25.40
2018-06-15T16:09:43.755Z,25.60
2018-06-15T16:14:52.495Z,25.10
2018-06-15T16:22:35.175Z,26.10
2018-06-15T16:25:09.473Z,26.50
2018-06-15T16:27:43.870Z,26.40
2018-06-15T16:30:18.470Z,26.00
2018-06-15T16:32:53.081Z,27.10
2018-06-15T16:35:27.672Z,27.00
2018-06-15T16:38:02.477Z,27.30
2018-06-15T16:40:37.154Z,27.20
2018-06-15T16:43:11.483Z,27.10
2018-06-15T16:45:45.864Z,27.10
2018-06-15T16:50:54.220Z,27.30
2018-06-15T16:53:28.514Z,28.10
2018-06-15T16:56:02.779Z,28.70
2018-06-15T16:58:37.025Z,29.00
2018-06-15T17:01:11.433Z,29.20
2018-06-15T17:03:45.852Z,29.50
2018-06-15T17:08:54.359Z,28.60
2018-06-15T17:11:29.014Z,27.70
2018-06-15T17:14:03.449Z,27.70
2018-06-15T17:16:37.929Z,28.50
2018-06-15T17:19:12.358Z,28.70
2018-06-15T17:21:47.260Z,29.30
2018-06-15T17:24:21.634Z,29.30
2018-06-15T17:26:55.975Z,28.40
2018-06-15T17:29:30.994Z,28.40
2018-06-15T17:32:06.274Z,27.90
2018-06-15T17:34:40.607Z,27.20
2018-06-15T17:37:14.891Z,27.30
2018-06-15T17:39:49.288Z,27.50
2018-06-15T17:44:58.210Z,27.20
2018-06-15T17:47:32.656Z,27.00
2018-06-15T17:50:07.167Z,26.90
2018-06-15T17:52:41.455Z,26.70
2018-06-15T17:55:15.871Z,26.40
2018-06-15T18:00:24.212Z,26.60
2018-06-15T18:02:58.531Z,25.90
2018-06-15T18:08:06.992Z,24.30
2018-06-15T18:10:41.335Z,23.80
2018-06-15T18:13:15.825Z,23.40
2018-06-15T18:15:50.288Z,23.10
2018-06-15T18:20:58.791Z,23.30
2018-06-15T18:23:33.970Z,23.10
2018-06-15T18:28:42.626Z,22.10
2018-06-15T18:31:16.986Z,22.20
2018-06-15T18:36:25.464Z,21.90
2018-06-15T18:38:59.888Z,21.80
2018-06-15T18:41:34.395Z,21.60
2018-06-15T18:44:09.287Z,21.80
2018-06-15T18:46:43.745Z,21.80
2018-06-15T18:49:18.202Z,21.80
2018-06-15T18:51:52.725Z,21.90
2018-06-15T18:54:27.172Z,21.90
2018-06-15T18:57:01.479Z,21.80
2018-06-15T18:59:36.222Z,21.70
2018-06-15T19:02:10.620Z,21.50
2018-06-15T19:04:44.987Z,21.60
2018-06-15T19:09:53.488Z,21.60
2018-06-15T19:12:27.837Z,21.50
2018-06-15T19:15:02.742Z,21.40
2018-06-15T19:17:37.197Z,21.40
2018-06-15T19:20:11.472Z,21.30
2018-06-15T19:22:45.815Z,21.10
2018-06-15T19:27:54.293Z,20.80
2018-06-15T19:30:28.583Z,20.70
2018-06-15T19:33:02.863Z,20.60
2018-06-15T19:35:37.305Z,20.40
2018-06-15T19:38:11.591Z,20.30
2018-06-15T19:40:45.863Z,20.20
2018-06-15T19:43:20.110Z,20.00
2018-06-15T19:45:54.520Z,19.90
2018-06-15T19:48:28.864Z,19.70
2018-06-15T19:51:03.345Z,19.50
2018-06-15T19:53:38.775Z,19.40
2018-06-15T19:56:13.369Z,19.30
2018-06-15T19:58:48.005Z,19.20
2018-06-15T20:01:22.267Z,19.10
2018-06-15T20:03:56.561Z,18.90
2018-06-15T20:06:31.030Z,18.90
2018-06-15T20:09:07.175Z,18.90
2018-06-15T20:11:41.454Z,18.80
2018-06-15T20:14:15.825Z,18.70
2018-06-15T20:16:50.069Z,18.20
2018-06-15T20:19:24.520Z,18.20
2018-06-15T20:21:58.873Z,18.20
2018-06-15T20:24:33.626Z,18.10
2018-06-15T20:29:42.107Z,18.00
2018-06-15T20:32:16.756Z,17.80
2018-06-15T20:34:51.084Z,17.80
2018-06-15T20:37:25.524Z,17.70
2018-06-15T20:39:59.995Z,17.60
2018-06-15T20:42:34.383Z,17.50
2018-06-15T20:45:08.669Z,17.50
2018-06-15T20:47:43.108Z,17.50
2018-06-15T20:50:17.411Z,17.10
2018-06-15T20:52:52.012Z,16.90
2018-06-15T20:55:26.645Z,17.00
2018-06-15T20:58:01.155Z,17.00
2018-06-15T21:00:36.011Z,17.00
2018-06-15T21:03:10.835Z,16.80
2018-06-15T21:05:45.585Z,16.60
2018-06-15T21:08:20.288Z,16.60
2018-06-15T21:10:54.889Z,16.40
2018-06-15T21:13:29.360Z,15.40
2018-06-15T21:16:03.691Z,15.50
2018-06-15T21:18:37.958Z,15.80
2018-06-15T21:21:12.223Z,15.90
2018-06-15T21:26:20.687Z,16.10
2018-06-15T21:28:55.106Z,16.00
2018-06-15T21:31:29.507Z,16.10
2018-06-15T21:34:03.914Z,16.10
2018-06-15T21:36:38.361Z,16.10
2018-06-15T21:39:12.863Z,16.00
2018-06-15T21:41:47.235Z,15.90
2018-06-15T21:44:21.594Z,15.70
2018-06-15T21:46:56.023Z,15.60
2018-06-15T21:49:30.285Z,15.50
2018-06-15T21:52:05.006Z,15.40
2018-06-15T21:54:39.516Z,15.40
2018-06-15T21:57:14.755Z,15.40
2018-06-15T21:59:49.259Z,15.30
2018-06-15T22:02:23.676Z,15.10
2018-06-15T22:04:58.236Z,15.10
2018-06-15T22:07:32.962Z,15.10
2018-06-15T22:10:07.659Z,15.10
2018-06-15T22:15:39.590Z,15.00
2018-06-15T22:21:01.698Z,14.80
2018-06-15T22:23:44.655Z,14.70
2018-06-15T22:26:27.956Z,14.70
2018-06-15T22:29:16.213Z,14.60
2018-06-15T22:31:54.062Z,14.50
2018-06-15T22:34:33.327Z,13.60
2018-06-15T22:37:13.001Z,13.70
2018-06-15T22:39:57.524Z,13.90
2018-06-15T22:42:37.425Z,14.10
2018-06-15T22:45:15.872Z,14.00
2018-06-15T22:47:56.044Z,14.10
2018-06-15T22:53:16.512Z,13.90
2018-06-15T22:56:11.641Z,13.90
2018-06-15T22:58:46.396Z,14.00
2018-06-15T23:01:21.023Z,14.00
2018-06-15T23:04:01.030Z,14.00
2018-06-15T23:06:39.753Z,14.00
2018-06-15T23:09:25.759Z,14.00
2018-06-15T23:12:06.299Z,14.00
2018-06-15T23:17:22.692Z,13.90
2018-06-15T23:19:58.537Z,13.70
2018-06-15T23:22:39.206Z,13.70
2018-06-15T23:25:13.577Z,13.70
2018-06-15T23:27:47.880Z,13.60
2018-06-15T23:30:22.316Z,13.60
2018-06-15T23:32:56.777Z,13.60
2018-06-15T23:35:31.235Z,13.60
2018-06-15T23:38:05.654Z,13.50
2018-06-15T23:40:40.028Z,13.40
2018-06-15T23:43:14.383Z,13.30
2018-06-15T23:45:48.771Z,13.40
2018-06-15T23:48:23.077Z,13.30
2018-06-15T23:50:57.499Z,13.20
2018-06-15T23:53:31.963Z,13.20
2018-06-15T23:56:06.651Z,13.10
2018-06-15T23:58:41.124Z,13.20
